createdAt,value
2022-11-17T00:01:44.637Z,99653.75
2022-11-17T00:04:14.612Z,99646.75
2022-11-17T00:06:43.268Z,99641.41
2022-11-17T00:09:17.462Z,99630.97
2022-11-17T00:12:04.051Z,99624.22
2022-11-17T00:14:36.793Z,99626.78
2022-11-17T00:17:07.679Z,99632.94
2022-11-17T00:19:55.776Z,99634.72
2022-11-17T00:22:24.946Z,99625.19
2022-11-17T00:24:53.585Z,99626.91
2022-11-17T00:27:22.197Z,99626.88
2022-11-17T00:29:50.910Z,99618.22
2022-11-17T00:32:38.349Z,99618.22
2022-11-17T00:35:08.755Z,99616.47
2022-11-17T00:37:39.318Z,99623.47
2022-11-17T00:40:08.783Z,99620.84
2022-11-17T00:42:37.335Z,99612.97
2022-11-17T00:45:06.741Z,99624.34
2022-11-17T00:47:37.675Z,99616.66
2022-11-17T00:50:08.817Z,99626.22
2022-11-17T00:52:37.479Z,99623.59
2022-11-17T00:55:06.948Z,99629.63
2022-11-17T00:57:35.600Z,99622.69
2022-11-17T01:00:04.904Z,99624.41
2022-11-17T01:02:33.479Z,99627.91
2022-11-17T01:05:02.031Z,99626.25
2022-11-17T01:07:31.994Z,99622.75
2022-11-17T01:10:00.611Z,99620.06
2022-11-17T01:12:29.188Z,99620.03
2022-11-17T01:14:57.819Z,99617.44
2022-11-17T01:17:26.370Z,99621.78
2022-11-17T01:19:54.962Z,99620.03
2022-11-17T01:22:23.475Z,99620.06
2022-11-17T01:24:53.475Z,99621.78
2022-11-17T01:27:22.115Z,99619.09
2022-11-17T01:29:50.675Z,99619.97
2022-11-17T01:32:19.276Z,99619.16
2022-11-17T01:34:49.315Z,99622.72
2022-11-17T01:37:20.587Z,99614.88
2022-11-17T01:39:49.563Z,99623.56
2022-11-17T01:42:22.150Z,99616.56
2022-11-17T01:45:00.690Z,99607.06
2022-11-17T01:47:45.933Z,99600.97
2022-11-17T01:50:37.231Z,99610.47
2022-11-17T01:53:10.263Z,99608.63
2022-11-17T01:55:45.283Z,99606.06
2022-11-17T01:58:18.333Z,99602.63
2022-11-17T02:00:47.347Z,99606.16
2022-11-17T02:03:15.936Z,99595.69
2022-11-17T02:05:52.877Z,99594.84
2022-11-17T02:08:23.976Z,99593.88
2022-11-17T02:10:54.355Z,99560.03
2022-11-17T02:13:25.552Z,99576.44
2022-11-17T02:15:54.190Z,99575.63
2022-11-17T02:18:23.131Z,99586.13
2022-11-17T02:21:07.964Z,99580.00
2022-11-17T02:24:03.694Z,99581.75
2022-11-17T02:26:58.944Z,99582.63
2022-11-17T02:29:38.000Z,99581.69
2022-11-17T02:32:10.908Z,99579.91
2022-11-17T02:34:48.816Z,99586.81
2022-11-17T02:37:27.977Z,99581.56
2022-11-17T02:40:02.410Z,99578.16
2022-11-17T02:42:55.663Z,99574.75
2022-11-17T02:45:31.506Z,99579.06
2022-11-17T02:48:01.878Z,99577.31
2022-11-17T02:50:33.277Z,99575.63
2022-11-17T02:53:02.094Z,99563.34
2022-11-17T02:55:33.182Z,99561.63
2022-11-17T02:58:01.791Z,99566.06
2022-11-17T03:00:36.374Z,99528.75
2022-11-17T03:03:26.722Z,99555.56
2022-11-17T03:06:05.138Z,99555.56
2022-11-17T03:08:46.045Z,99552.97
2022-11-17T03:11:15.656Z,99552.97
2022-11-17T03:13:49.569Z,99552.06
2022-11-17T03:16:27.054Z,99549.34
2022-11-17T03:19:12.798Z,99525.91
2022-11-17T03:21:46.605Z,99551.91
2022-11-17T03:24:22.738Z,99464.31
2022-11-17T03:27:01.413Z,99560.63
2022-11-17T03:29:33.800Z,99559.72
2022-11-17T03:32:08.122Z,99562.19
2022-11-17T03:34:43.802Z,99511.03
2022-11-17T03:37:15.706Z,99557.13
2022-11-17T03:39:48.843Z,99486.09
2022-11-17T03:42:23.718Z,99555.41
2022-11-17T03:44:56.681Z,99552.78
2022-11-17T03:47:29.279Z,99550.06
2022-11-17T03:50:01.339Z,99550.09
2022-11-17T03:52:31.109Z,99550.13
2022-11-17T03:55:00.013Z,99548.44
2022-11-17T03:57:36.437Z,99549.28
2022-11-17T04:00:08.226Z,99547.63
2022-11-17T04:02:45.296Z,99507.78
2022-11-17T04:05:16.354Z,99553.75
2022-11-17T04:07:47.130Z,99553.66
2022-11-17T04:10:17.631Z,99555.41
2022-11-17T04:13:04.939Z,99542.31
2022-11-17T04:15:47.838Z,99540.47
2022-11-17T04:18:18.889Z,99546.56
2022-11-17T04:20:50.902Z,99547.44
2022-11-17T04:23:20.311Z,99537.84
2022-11-17T04:26:07.833Z,99527.34
2022-11-17T04:28:39.210Z,99530.75
2022-11-17T04:31:13.941Z,99522.91
2022-11-17T04:33:46.232Z,99533.34
2022-11-17T04:36:17.640Z,99523.66
2022-11-17T04:38:48.769Z,99521.06
2022-11-17T04:41:36.202Z,99525.50
2022-11-17T04:44:07.138Z,99527.28
2022-11-17T04:46:37.742Z,99529.91
2022-11-17T04:49:09.460Z,99529.06
2022-11-17T04:51:45.321Z,99526.34
2022-11-17T04:54:17.378Z,99523.63
2022-11-17T04:56:46.533Z,99522.75
2022-11-17T04:59:15.570Z,99524.41
2022-11-17T05:01:44.351Z,99527.00
2022-11-17T05:04:36.189Z,99516.56
2022-11-17T05:07:05.811Z,99514.81
2022-11-17T05:09:34.515Z,99518.28
2022-11-17T05:12:21.087Z,99513.88
2022-11-17T05:14:50.616Z,99513.81
2022-11-17T05:17:18.685Z,99511.09
2022-11-17T05:19:49.960Z,99508.41
2022-11-17T05:22:38.478Z,99513.81
2022-11-17T05:25:08.353Z,99503.47
2022-11-17T05:27:37.664Z,99500.09
2022-11-17T05:30:08.941Z,99509.59
2022-11-17T05:32:37.599Z,99505.22
2022-11-17T05:35:09.163Z,99515.78
2022-11-17T05:37:37.995Z,99511.44
2022-11-17T05:40:08.130Z,99514.88
2022-11-17T05:42:37.056Z,99514.72
2022-11-17T05:45:06.657Z,99511.28
2022-11-17T05:47:35.748Z,99509.44
2022-11-17T05:50:06.185Z,99511.16
2022-11-17T05:52:34.982Z,99505.03
2022-11-17T05:55:03.805Z,99505.16
2022-11-17T05:57:34.845Z,99506.03
2022-11-17T06:00:05.121Z,99514.72
2022-11-17T06:02:46.422Z,99505.09
2022-11-17T06:05:20.161Z,99510.41
2022-11-17T06:07:50.126Z,99500.78
2022-11-17T06:10:19.145Z,99508.66
2022-11-17T06:12:47.728Z,99512.97
2022-11-17T06:15:16.411Z,99498.06
2022-11-17T06:17:51.277Z,99507.56
2022-11-17T06:20:25.682Z,99496.97
2022-11-17T06:22:56.637Z,99498.81
2022-11-17T06:25:25.569Z,99497.19
2022-11-17T06:27:55.091Z,99499.81
2022-11-17T06:30:23.746Z,99496.22
2022-11-17T06:32:53.990Z,99490.88
2022-11-17T06:35:25.109Z,99494.44
2022-11-17T06:37:56.154Z,99504.84
2022-11-17T06:40:24.768Z,99493.47
2022-11-17T06:43:08.453Z,99497.88
2022-11-17T06:45:38.534Z,99490.16
2022-11-17T06:48:08.877Z,99495.25
2022-11-17T06:50:39.175Z,99484.78
2022-11-17T06:53:10.019Z,99479.50
2022-11-17T06:55:39.850Z,99484.72
2022-11-17T06:58:11.604Z,99481.25
2022-11-17T07:00:40.492Z,99483.84
2022-11-17T07:03:10.981Z,99475.97
2022-11-17T07:05:41.370Z,99479.63
2022-11-17T07:08:11.074Z,99470.88
2022-11-17T07:10:42.538Z,99460.28
2022-11-17T07:13:13.667Z,99461.88
2022-11-17T07:15:42.236Z,99482.84
2022-11-17T07:18:10.920Z,99468.06
2022-11-17T07:20:40.909Z,99464.63
2022-11-17T07:23:09.657Z,99475.06
2022-11-17T07:25:38.389Z,99477.63
2022-11-17T07:28:07.237Z,99477.63
2022-11-17T07:30:36.268Z,99474.09
2022-11-17T07:33:06.121Z,99480.13
2022-11-17T07:35:36.819Z,99474.81
2022-11-17T07:38:06.813Z,99468.63
2022-11-17T07:40:35.652Z,99473.88
2022-11-17T07:43:04.242Z,99475.72
2022-11-17T07:45:36.216Z,99477.50
2022-11-17T07:48:07.051Z,99478.34
2022-11-17T07:50:37.058Z,99484.44
2022-11-17T07:53:07.215Z,99476.59
2022-11-17T07:55:35.789Z,99473.00
2022-11-17T07:58:04.369Z,99488.63
2022-11-17T08:00:33.764Z,99479.88
2022-11-17T08:03:04.044Z,99482.47
2022-11-17T08:05:41.589Z,99493.84
2022-11-17T08:08:13.396Z,99485.91
2022-11-17T08:10:43.085Z,99481.56
2022-11-17T08:13:14.040Z,99481.44
2022-11-17T08:15:42.818Z,99477.91
2022-11-17T08:18:11.400Z,99478.69
2022-11-17T08:20:40.098Z,99469.75
2022-11-17T08:23:08.945Z,99467.19
2022-11-17T08:25:38.950Z,99463.59
2022-11-17T08:28:07.771Z,99465.28
2022-11-17T08:30:36.547Z,99461.75
2022-11-17T08:33:05.280Z,99462.59
2022-11-17T08:35:37.483Z,99465.34
2022-11-17T08:38:06.903Z,99461.69
2022-11-17T08:40:35.540Z,99462.56
2022-11-17T08:43:05.848Z,99466.06
2022-11-17T08:45:34.498Z,99464.16
2022-11-17T08:48:04.041Z,99467.56
2022-11-17T08:50:32.656Z,99463.31
2022-11-17T08:53:01.216Z,99466.81
2022-11-17T08:55:29.937Z,99461.41
2022-11-17T08:57:58.616Z,99467.38
2022-11-17T09:00:28.636Z,99469.97
2022-11-17T09:02:57.240Z,99469.94
2022-11-17T09:05:25.925Z,99475.34
2022-11-17T09:07:54.674Z,99473.38
2022-11-17T09:10:23.301Z,99473.19
2022-11-17T09:12:55.866Z,99480.22
2022-11-17T09:15:24.800Z,99482.09
2022-11-17T09:17:54.812Z,99480.22
2022-11-17T09:20:23.714Z,99474.09
2022-11-17T09:22:52.545Z,99474.03
2022-11-17T09:25:21.268Z,99472.25
2022-11-17T09:27:52.534Z,99472.34
2022-11-17T09:30:22.339Z,99474.09
2022-11-17T09:32:51.629Z,99473.19
2022-11-17T09:35:22.754Z,99482.53
2022-11-17T09:37:51.421Z,99475.34
2022-11-17T09:40:21.063Z,99472.84
2022-11-17T09:42:50.353Z,99468.34
2022-11-17T09:45:23.552Z,99483.22
2022-11-17T09:48:18.600Z,99473.03
2022-11-17T09:50:51.612Z,99473.94
2022-11-17T09:53:29.626Z,99467.00
2022-11-17T09:56:02.679Z,99476.50
2022-11-17T09:58:35.626Z,99473.09
2022-11-17T10:01:05.187Z,99472.19
2022-11-17T10:03:41.775Z,99401.25
2022-11-17T10:06:18.070Z,99466.94
2022-11-17T10:08:54.669Z,99467.78
2022-11-17T10:11:35.116Z,99471.38
2022-11-17T10:14:11.710Z,99472.19
2022-11-17T10:16:42.157Z,99477.75
2022-11-17T10:19:18.004Z,99481.22
2022-11-17T10:21:51.774Z,99473.31
2022-11-17T10:24:37.970Z,99470.56
2022-11-17T10:27:16.525Z,99471.25
2022-11-17T10:29:58.576Z,99463.19
2022-11-17T10:32:27.798Z,99469.19
2022-11-17T10:34:56.429Z,99460.38
2022-11-17T10:37:32.226Z,99465.81
2022-11-17T10:40:25.269Z,99462.34
2022-11-17T10:43:17.764Z,99467.22
2022-11-17T10:45:47.279Z,99465.31
2022-11-17T10:48:25.687Z,99456.81
2022-11-17T10:50:56.722Z,99458.34
2022-11-17T10:53:41.331Z,99459.00
2022-11-17T10:56:16.238Z,99450.25
2022-11-17T10:59:01.093Z,99460.59
2022-11-17T11:01:35.179Z,99450.03
2022-11-17T11:04:04.761Z,99447.75
2022-11-17T11:06:35.123Z,99446.88
2022-11-17T11:09:12.564Z,99444.44
2022-11-17T11:11:47.792Z,99438.88
2022-11-17T11:14:24.963Z,99431.63
2022-11-17T11:16:55.695Z,99432.84
2022-11-17T11:19:24.361Z,99424.47
2022-11-17T11:22:24.749Z,99415.56
2022-11-17T11:25:01.769Z,99412.63
2022-11-17T11:27:47.333Z,99407.50
2022-11-17T11:30:19.352Z,99409.72
2022-11-17T11:33:02.054Z,99401.66
2022-11-17T11:35:46.088Z,99395.25
2022-11-17T11:38:43.511Z,99387.34
2022-11-17T11:41:32.685Z,99399.22
2022-11-17T11:44:20.072Z,99391.22
2022-11-17T11:46:57.042Z,99398.94
2022-11-17T11:49:35.437Z,99392.66
2022-11-17T11:52:07.995Z,99389.19
2022-11-17T11:54:46.324Z,99389.44
2022-11-17T11:57:26.137Z,99393.03
2022-11-17T12:00:04.520Z,99378.34
2022-11-17T12:02:43.365Z,99381.06
2022-11-17T12:05:22.241Z,99385.59
2022-11-17T12:07:59.064Z,99384.81
2022-11-17T12:10:32.956Z,99375.81
2022-11-17T12:13:05.006Z,99375.03
2022-11-17T12:15:35.930Z,99380.16
2022-11-17T12:18:11.423Z,99376.81
2022-11-17T12:20:58.918Z,99367.94
2022-11-17T12:23:50.764Z,99373.09
2022-11-17T12:26:25.558Z,99377.81
2022-11-17T12:29:29.571Z,99370.00
2022-11-17T12:32:00.000Z,99373.28
2022-11-17T12:34:31.671Z,99368.34
2022-11-17T12:37:26.403Z,99364.00
2022-11-17T12:40:03.885Z,99366.75
2022-11-17T12:42:33.989Z,99365.19
2022-11-17T12:45:11.522Z,99364.94
2022-11-17T12:47:44.349Z,99371.78
2022-11-17T12:50:33.195Z,99373.78
2022-11-17T12:53:25.020Z,99372.34
2022-11-17T12:56:17.054Z,99367.88
2022-11-17T12:58:59.750Z,99368.72
2022-11-17T13:01:45.607Z,99329.75
2022-11-17T13:04:18.735Z,99367.13
2022-11-17T13:07:01.888Z,99361.78
2022-11-17T13:09:33.344Z,99359.06
2022-11-17T13:12:05.160Z,99380.03
2022-11-17T13:14:35.419Z,99363.63
2022-11-17T13:17:12.327Z,99367.00
2022-11-17T13:19:42.754Z,99366.13
2022-11-17T13:22:18.688Z,99352.25
2022-11-17T13:24:50.073Z,99323.19
2022-11-17T13:27:23.179Z,99348.97
2022-11-17T13:29:52.186Z,99348.97
2022-11-17T13:32:24.826Z,99362.19
2022-11-17T13:34:56.558Z,99362.97
2022-11-17T13:37:26.962Z,99355.94
2022-11-17T13:39:57.432Z,99364.50
2022-11-17T13:42:28.609Z,99352.34
2022-11-17T13:44:59.442Z,99356.00
2022-11-17T13:47:45.392Z,99353.50
2022-11-17T13:50:40.568Z,99347.53
2022-11-17T13:53:26.393Z,99350.94
2022-11-17T13:55:55.287Z,99346.34
2022-11-17T13:58:35.376Z,99335.13
2022-11-17T14:01:04.067Z,99354.53
2022-11-17T14:03:39.269Z,99335.09
2022-11-17T14:06:10.028Z,99336.88
2022-11-17T14:08:39.958Z,99331.66
2022-11-17T14:11:22.660Z,99335.94
2022-11-17T14:13:53.243Z,99340.28
2022-11-17T14:16:26.001Z,99336.13
2022-11-17T14:19:04.831Z,99344.81
2022-11-17T14:21:34.200Z,99342.41
2022-11-17T14:24:13.335Z,99351.09
2022-11-17T14:26:44.864Z,99358.06
2022-11-17T14:29:14.538Z,99353.66
2022-11-17T14:31:43.327Z,99337.91
2022-11-17T14:34:13.717Z,99338.78
2022-11-17T14:36:42.744Z,99342.34
2022-11-17T14:39:20.617Z,99337.25
2022-11-17T14:41:51.526Z,99350.34
2022-11-17T14:44:21.868Z,99344.34
2022-11-17T14:46:50.476Z,99340.78
2022-11-17T14:49:20.463Z,99346.25
2022-11-17T14:51:50.451Z,99359.28
2022-11-17T14:54:19.071Z,99349.72
2022-11-17T14:56:47.634Z,99352.56
2022-11-17T14:59:18.784Z,99349.09
2022-11-17T15:01:47.656Z,99354.22
2022-11-17T15:07:07.351Z,99342.75
2022-11-17T15:09:35.996Z,99350.84
2022-11-17T15:12:04.764Z,99346.59
2022-11-17T15:14:33.401Z,99357.09
2022-11-17T15:17:03.613Z,99349.31
2022-11-17T15:19:32.342Z,99348.50
2022-11-17T15:22:01.321Z,99346.81
2022-11-17T15:24:31.386Z,99352.06
2022-11-17T15:27:00.089Z,99346.25
2022-11-17T15:29:28.690Z,99353.22
2022-11-17T15:31:57.294Z,99354.25
2022-11-17T15:34:25.843Z,99343.69
2022-11-17T15:36:54.511Z,99354.16
2022-11-17T15:39:23.268Z,99356.75
2022-11-17T15:41:53.367Z,99352.53
2022-11-17T15:44:21.994Z,99358.66
2022-11-17T15:46:50.529Z,99351.72
2022-11-17T15:49:19.416Z,99354.41
2022-11-17T15:51:48.391Z,99364.94
2022-11-17T15:54:20.661Z,99353.66
2022-11-17T15:56:50.948Z,99359.00
2022-11-17T15:59:20.940Z,99350.22
2022-11-17T16:01:50.055Z,99344.09
2022-11-17T16:04:18.646Z,99350.38
2022-11-17T16:06:48.427Z,99349.56
2022-11-17T16:09:17.722Z,99339.88
2022-11-17T16:11:46.879Z,99346.03
2022-11-17T16:14:15.834Z,99343.41
2022-11-17T16:16:47.883Z,99341.75
2022-11-17T16:19:16.554Z,99341.78
2022-11-17T16:21:45.482Z,99342.81
2022-11-17T16:24:14.519Z,99336.75
2022-11-17T16:26:44.532Z,99333.16
2022-11-17T16:29:13.661Z,99340.06
2022-11-17T16:31:42.457Z,99332.28
2022-11-17T16:34:15.817Z,99335.72
2022-11-17T16:36:45.064Z,99332.31
2022-11-17T16:39:17.017Z,99326.09
2022-11-17T16:41:47.303Z,99329.75
2022-11-17T16:44:19.061Z,99328.94
2022-11-17T16:46:49.829Z,99324.75
2022-11-17T16:49:20.977Z,99324.75
2022-11-17T16:51:50.711Z,99324.72
2022-11-17T16:54:19.489Z,99328.06
2022-11-17T16:56:48.212Z,99325.47
2022-11-17T16:59:17.372Z,99322.03
2022-11-17T17:01:46.550Z,99322.09
2022-11-17T17:04:15.253Z,99324.59
2022-11-17T17:06:46.317Z,99324.63
2022-11-17T17:09:16.326Z,99328.22
2022-11-17T17:11:45.554Z,99333.34
2022-11-17T17:14:16.229Z,99334.25
2022-11-17T17:16:45.112Z,99337.78
2022-11-17T17:19:15.509Z,99329.09
2022-11-17T17:21:46.049Z,99336.09
2022-11-17T17:24:15.001Z,99343.06
2022-11-17T17:26:43.594Z,99340.38
2022-11-17T17:29:13.651Z,99343.03
2022-11-17T17:31:43.505Z,99342.13
2022-11-17T17:34:15.174Z,99340.41
2022-11-17T17:36:45.115Z,99326.47
2022-11-17T17:42:02.274Z,99339.72
2022-11-17T17:44:30.931Z,99333.59
2022-11-17T17:46:59.512Z,99328.41
2022-11-17T17:49:28.133Z,99330.34
2022-11-17T17:51:58.124Z,99333.00
2022-11-17T17:54:26.701Z,99328.63
2022-11-17T17:56:57.204Z,99322.44
2022-11-17T17:59:25.802Z,99327.69
2022-11-17T18:01:54.380Z,99319.78
2022-11-17T18:04:23.181Z,99326.91
2022-11-17T18:06:51.860Z,99321.66
2022-11-17T18:09:22.130Z,99319.16
2022-11-17T18:11:51.381Z,99319.09
2022-11-17T18:14:24.519Z,99310.34
2022-11-17T18:16:53.712Z,99313.78
2022-11-17T18:19:24.878Z,99312.91
2022-11-17T18:21:57.057Z,99319.88
2022-11-17T18:24:27.598Z,99318.25
2022-11-17T18:26:56.246Z,99319.94
2022-11-17T18:29:24.924Z,99328.63
2022-11-17T18:31:53.716Z,99333.88
2022-11-17T18:34:24.109Z,99326.09
2022-11-17T18:36:55.524Z,99325.25
2022-11-17T18:39:24.446Z,99322.66
2022-11-17T18:41:54.455Z,99323.53
2022-11-17T18:44:23.138Z,99329.63
2022-11-17T18:46:51.860Z,99327.03
2022-11-17T18:49:20.826Z,99324.31
2022-11-17T18:51:50.433Z,99331.28
2022-11-17T18:54:19.226Z,99322.63
2022-11-17T18:56:49.945Z,99321.88
2022-11-17T18:59:20.104Z,99322.75
2022-11-17T19:01:49.058Z,99328.78
2022-11-17T19:04:18.287Z,99320.06
2022-11-17T19:06:47.069Z,99328.75
2022-11-17T19:09:16.322Z,99327.00
2022-11-17T19:11:45.077Z,99329.59
2022-11-17T19:14:13.726Z,99326.13
2022-11-17T19:16:45.299Z,99334.03
2022-11-17T19:19:15.340Z,99327.94
2022-11-17T19:21:45.133Z,99321.81
2022-11-17T19:24:15.233Z,99321.81
2022-11-17T19:26:44.095Z,99324.41
2022-11-17T19:29:17.025Z,99327.94
2022-11-17T19:31:48.688Z,99322.72
2022-11-17T19:34:17.703Z,99265.81
2022-11-17T19:36:46.343Z,99326.28
2022-11-17T19:39:17.003Z,99322.78
2022-11-17T19:41:47.732Z,99326.28
2022-11-17T19:44:16.476Z,99324.50
2022-11-17T19:46:45.106Z,99325.31
2022-11-17T19:49:15.492Z,99329.75
2022-11-17T19:51:44.322Z,99327.16
2022-11-17T19:54:14.581Z,99331.53
2022-11-17T19:56:43.270Z,99328.16
2022-11-17T19:59:16.015Z,99324.69
2022-11-17T20:01:45.964Z,99323.00
2022-11-17T20:04:16.137Z,99312.47
2022-11-17T20:06:44.951Z,99307.28
2022-11-17T20:09:15.367Z,99308.97
2022-11-17T20:11:44.629Z,99312.47
2022-11-17T20:14:14.374Z,99323.13
2022-11-17T20:16:43.011Z,99312.59
2022-11-17T20:19:12.146Z,99316.94
2022-11-17T20:21:42.219Z,99315.34
2022-11-17T20:24:11.336Z,99319.75
2022-11-17T20:26:43.132Z,99314.53
2022-11-17T20:29:11.794Z,99317.13
2022-11-17T20:31:40.376Z,99324.03
2022-11-17T20:34:13.345Z,99330.09
2022-11-17T20:36:43.675Z,99327.44
2022-11-17T20:39:12.568Z,99325.78
2022-11-17T20:41:41.176Z,99317.88
2022-11-17T20:44:23.996Z,99330.13
2022-11-17T20:46:54.876Z,99321.50
2022-11-17T20:49:23.919Z,99315.41
2022-11-17T20:51:53.859Z,99320.56
2022-11-17T20:54:22.533Z,99322.38
2022-11-17T20:56:51.161Z,99323.34
2022-11-17T20:59:20.342Z,99322.38
2022-11-17T21:01:50.473Z,99322.38
2022-11-17T21:04:19.347Z,99320.72
2022-11-17T21:06:47.925Z,99313.00
2022-11-17T21:09:18.369Z,99314.63
2022-11-17T21:12:01.097Z,99316.31
2022-11-17T21:14:30.578Z,99315.50
2022-11-17T21:17:01.152Z,99315.50
2022-11-17T21:19:32.358Z,99319.09
2022-11-17T21:22:02.836Z,99323.38
2022-11-17T21:24:32.810Z,99323.34
2022-11-17T21:27:01.406Z,99329.53
2022-11-17T21:29:29.984Z,99327.84
2022-11-17T21:31:58.631Z,99332.16
2022-11-17T21:34:27.244Z,99328.63
2022-11-17T21:36:55.896Z,99335.59
2022-11-17T21:39:24.636Z,99332.94
2022-11-17T21:41:54.633Z,99336.31
2022-11-17T21:44:23.385Z,99341.78
2022-11-17T21:46:52.005Z,99342.63
2022-11-17T21:49:20.636Z,99331.31
2022-11-17T21:51:49.262Z,99327.94
2022-11-17T21:54:17.936Z,99328.88
2022-11-17T21:56:46.654Z,99335.88
2022-11-17T21:59:17.590Z,99338.38
2022-11-17T22:01:46.417Z,99339.19
2022-11-17T22:04:15.839Z,99339.16
2022-11-17T22:06:44.732Z,99339.19
2022-11-17T22:09:13.909Z,99338.38
2022-11-17T22:11:42.690Z,99327.06
2022-11-17T22:14:13.041Z,99326.28
2022-11-17T22:16:44.631Z,99334.94
2022-11-17T22:19:14.575Z,99331.44
2022-11-17T22:21:43.905Z,99341.78
2022-11-17T22:24:13.845Z,99336.56
2022-11-17T22:26:43.576Z,99339.19
2022-11-17T22:29:14.953Z,99340.91
2022-11-17T22:31:45.621Z,99342.72
2022-11-17T22:34:14.662Z,99341.75
2022-11-17T22:36:43.275Z,99341.09
2022-11-17T22:39:12.163Z,99336.72
2022-11-17T22:41:40.897Z,99342.81
2022-11-17T22:44:13.224Z,99348.94
2022-11-17T22:46:43.208Z,99354.16
2022-11-17T22:49:13.824Z,99345.44
2022-11-17T22:52:00.166Z,99343.72
2022-11-17T22:54:28.845Z,99341.09
2022-11-17T22:56:57.564Z,99349.84
2022-11-17T22:59:27.215Z,99350.00
2022-11-17T23:01:56.198Z,99363.03
2022-11-17T23:04:26.240Z,99358.69
2022-11-17T23:06:55.001Z,99356.00
2022-11-17T23:09:23.638Z,99360.38
2022-11-17T23:11:52.285Z,99358.66
2022-11-17T23:14:21.087Z,99356.00
2022-11-17T23:16:49.741Z,99359.44
2022-11-17T23:19:18.499Z,99356.03
2022-11-17T23:21:48.887Z,99358.63
2022-11-17T23:24:17.587Z,99363.94
2022-11-17T23:26:46.187Z,99359.50
2022-11-17T23:29:15.120Z,99364.72
2022-11-17T23:31:44.143Z,99365.69
2022-11-17T23:34:13.222Z,99363.94
2022-11-17T23:36:42.027Z,99363.06
2022-11-17T23:39:12.281Z,99360.38
2022-11-17T23:41:41.005Z,99358.66
2022-11-17T23:44:09.652Z,99358.66
2022-11-17T23:46:38.366Z,99352.53
2022-11-17T23:49:07.071Z,99349.13
2022-11-17T23:51:36.342Z,99344.00
2022-11-17T23:54:05.234Z,99345.78
2022-11-17T23:56:35.892Z,99350.06
2022-11-17T23:59:04.760Z,99360.47
